Swinomish — WC5223 — position and weather

sailwx.info

Track history (hours):
 
Tides and Currents Weather Stations Pressure Air Temp Water Temp Dewpoint Dewpoint Depression Visibility Wind Speed Wind Dir Waves Ship Positions

Swinomish

Owner: DUNLAP TOWING CO, LA CONNER, WA. More information available from US FCC via Universal Licensing System and Coast Guard Vessel Documentation Center.

Last reported at 2014-Nov-23 20:33 UTC. Time now 2014-Nov-23 21:19 UTC.
Position N 48°36' W 123°00'.

Length 15 m; draft 3.5 m.

Type: Tug. MMSI: 366972050.

Date/timePositionNaut miles runAvg speedWind from/ knotsBaromVisibWave heightAir tempDewpointWater temp
2014-Nov-23 20:33N 48°36' W 123°00'0 0.0
2014-Nov-23 19:33N 48°36' W 123°00'0 0.0
2014-Nov-23 18:33N 48°36' W 123°00'0 0.0
2014-Nov-23 17:33N 48°36' W 123°00'0 0.0
2014-Nov-23 16:33N 48°36' W 123°00'0 0.0
2014-Nov-23 15:33N 48°36' W 123°00'0 0.0
2014-Nov-23 14:33N 48°36' W 123°00'0 0.0
2014-Nov-23 13:33N 48°36' W 123°00'0 0.0
2014-Nov-23 12:33N 48°36' W 123°00'0 0.0
2014-Nov-23 11:33N 48°36' W 123°00'0 0.0
2014-Nov-23 10:31N 48°36' W 123°00'0 0.0
2014-Nov-23 09:33N 48°36' W 123°00'0 0.0
2014-Nov-23 08:33N 48°36' W 123°00'0 0.0
2014-Nov-23 07:33N 48°36' W 123°00'0 0.0
2014-Nov-23 06:33N 48°36' W 123°00'0 0.0
2014-Nov-23 05:33N 48°36' W 123°00'0 0.0
2014-Nov-23 04:33N 48°36' W 123°00'0 0.0
2014-Nov-23 03:33N 48°36' W 123°00'0 0.0
2014-Nov-23 02:33N 48°36' W 123°00'0 0.0
2014-Nov-23 01:33N 48°36' W 123°00'0 0.0
2014-Nov-23 00:33N 48°36' W 123°00'0 0.0
2014-Nov-22 23:33N 48°36' W 123°00'0 0.0
2014-Nov-22 22:32N 48°36' W 123°00'0 0.0
2014-Nov-22 21:32N 48°36' W 123°00'0 0.0
2014-Nov-22 20:33N 48°36' W 123°00'0 0.0
2014-Nov-22 19:33N 48°36' W 123°00'0 0.0
2014-Nov-22 18:33N 48°36' W 123°00'0 0.0
2014-Nov-22 17:33N 48°36' W 123°00'0 0.0
2014-Nov-22 16:33N 48°36' W 123°00'0 0.0
2014-Nov-22 15:33N 48°36' W 123°00'0 0.0
2014-Nov-22 14:33N 48°36' W 123°00'0 0.0
2014-Nov-22 13:33N 48°36' W 123°00'0 0.0
2014-Nov-22 12:33N 48°36' W 123°00'0 0.0
2014-Nov-22 11:33N 48°36' W 123°00'0 0.0
2014-Nov-22 10:33N 48°36' W 123°00'0 0.0
2014-Nov-22 09:33N 48°36' W 123°00'0 0.0
2014-Nov-22 08:33N 48°36' W 123°00'0 0.0
2014-Nov-22 07:33N 48°36' W 123°00'0 0.0
2014-Nov-22 06:33N 48°36' W 123°00'0 0.0
2014-Nov-22 05:33N 48°36' W 123°00'0 0.0
2014-Nov-22 04:33N 48°36' W 123°00'0 0.1
2014-Nov-22 03:33N 48°36' W 123°00'0 0.0
2014-Nov-22 02:33N 48°36' W 123°00'0 0.0
2014-Nov-22 01:33N 48°36' W 123°00'0 0.0
2014-Nov-22 00:32N 48°36' W 123°00'0 0.0
2014-Nov-21 23:33N 48°36' W 123°00'0 0.0
2014-Nov-21 22:33N 48°36' W 123°00'0 0.0
2014-Nov-21 21:33N 48°36' W 123°00'0 0.0
2014-Nov-21 20:33N 48°36' W 123°00'0 0.0
2014-Nov-21 19:33N 48°36' W 123°00'0 0.0
2014-Nov-21 18:33N 48°36' W 123°00'0 0.0
2014-Nov-21 17:33N 48°36' W 123°00'1 1.1
2014-Nov-21 16:33N 48°37' W 123°02'2 1.9
2014-Nov-21 15:31N 48°39' W 123°01'2 1.9
2014-Nov-21 14:33N 48°40' W 122°60'2 1.6
2014-Nov-21 13:33N 48°41' W 122°58'1 0.8
2014-Nov-21 12:33N 48°42' W 122°58'0 0.1
2014-Nov-21 11:33N 48°42' W 122°58'1 1.2
2014-Nov-21 10:33N 48°43' W 122°59'1 1.0
2014-Nov-21 09:33N 48°44' W 122°60'2 2.3
2014-Nov-21 08:33N 48°44' W 123°03'3 2.8
2014-Nov-21 07:34N 48°43' W 123°07'1 1.1
2014-Nov-21 06:32N 48°44' W 123°08'1 1.0
2014-Nov-21 05:33N 48°45' W 123°08'2 2.0
2014-Nov-21 04:33N 48°46' W 123°11'1 0.9
2014-Nov-21 03:33N 48°46' W 123°12'1 0.9
2014-Nov-21 02:33N 48°46' W 123°13'0 0.2
2014-Nov-21 01:33N 48°47' W 123°13'0 0.5
2014-Nov-21 00:33N 48°46' W 123°13'1 0.7
2014-Nov-20 23:33N 48°47' W 123°13'1 1.0
2014-Nov-20 22:33N 48°48' W 123°14'1 1.2
2014-Nov-20 21:30N 48°49' W 123°15'2 1.1
2014-Nov-20 19:28N 48°50' W 123°19'1 0.5
2014-Nov-20 17:32N 48°50' W 123°20'3 1.5
2014-Nov-20 15:29N 48°51' W 123°24'1 1.1
2014-Nov-20 14:33N 48°52' W 123°25'1 0.9
2014-Nov-20 13:33N 48°52' W 123°27'0 0.2
2014-Nov-20 12:33N 48°52' W 123°27'1 0.5
2014-Nov-20 11:33N 48°52' W 123°26'0 0.1
2014-Nov-20 09:33N 48°52' W 123°27'1 1.2
2014-Nov-20 08:28N 48°53' W 123°28'1 1.3
2014-Nov-20 07:27N 48°55' W 123°29'8 2.0
2014-Nov-20 03:33N 49°00' W 123°37'1 1.2
2014-Nov-20 02:31N 49°01' W 123°38'1 0.1
2014-Nov-19 19:19N 49°01' W 123°37'2011.2
2014-Nov-19 17:32N 48°48' W 123°15'1111.1
2014-Nov-19 16:31N 48°45' W 122°58'1010.9
2014-Nov-19 15:33N 48°40' W 122°44'1010.1
2014-Nov-19 14:33N 48°32' W 122°34'8 8.2
2014-Nov-19 13:33N 48°25' W 122°30'1 0.7
2014-Nov-19 12:33N 48°24' W 122°30'0 0.0
2014-Nov-19 11:33N 48°24' W 122°30'0 0.0
2014-Nov-19 10:33N 48°24' W 122°30'0 0.0
2014-Nov-19 09:33N 48°24' W 122°30'0 0.0
2014-Nov-19 08:33N 48°24' W 122°30'4 3.3
2014-Nov-19 07:27N 48°21' W 122°33'5 4.7
2014-Nov-19 06:28N 48°25' W 122°35'1 0.8
2014-Nov-19 05:33N 48°26' W 122°34'3 1.3
2014-Nov-19 03:33N 48°25' W 122°37'1 1.4
2014-Nov-19 02:33N 48°24' W 122°39'0 0.4
2014-Nov-19 01:32N 48°25' W 122°40'1 0.7
2014-Nov-19 00:33N 48°25' W 122°41'2 2.3
2014-Nov-18 23:33N 48°27' W 122°43'2 2.4
2014-Nov-18 22:33N 48°29' W 122°44'1 1.4
2014-Nov-18 21:33N 48°30' W 122°45'2 1.6
2014-Nov-18 20:33N 48°31' W 122°47'1 1.2
2014-Nov-18 19:33N 48°32' W 122°49'1 0.8
2014-Nov-18 18:33N 48°31' W 122°50'1 0.7
2014-Nov-18 17:33N 48°31' W 122°51'0 0.1
2014-Nov-18 16:33N 48°31' W 122°51'0 0.0
2014-Nov-18 15:33N 48°31' W 122°51'0 0.0
2014-Nov-18 14:33N 48°31' W 122°51'0 0.0
2014-Nov-18 13:33N 48°31' W 122°51'0 0.0
2014-Nov-18 12:33N 48°31' W 122°51'0 0.0
2014-Nov-18 11:33N 48°31' W 122°51'0 0.0
2014-Nov-18 10:33N 48°31' W 122°51'0 0.0
2014-Nov-18 09:33N 48°31' W 122°51'0 0.0
2014-Nov-18 08:33N 48°31' W 122°51'0 0.0
2014-Nov-18 07:33N 48°31' W 122°51'0 0.0
2014-Nov-18 06:33N 48°31' W 122°51'0 0.1
2014-Nov-18 05:33N 48°31' W 122°51'1 1.4
2014-Nov-18 04:33N 48°33' W 122°50'2 1.7
2014-Nov-18 03:33N 48°34' W 122°52'2 2.0
2014-Nov-18 02:33N 48°35' W 122°54'2 2.3
2014-Nov-18 01:33N 48°36' W 122°58'2 2.0
2014-Nov-18 00:33N 48°36' W 123°01'2 2.0
2014-Nov-17 23:33N 48°37' W 123°02'2 1.8
2014-Nov-17 22:33N 48°39' W 123°01'2 1.8
2014-Nov-17 21:33N 48°41' W 122°60'2 1.9
2014-Nov-17 20:33N 48°43' W 122°59'2 2.2
2014-Nov-17 19:33N 48°45' W 123°00'2 2.1
2014-Nov-17 18:33N 48°44' W 123°03'2 1.6
2014-Nov-17 17:33N 48°43' W 123°06'1 1.2
2014-Nov-17 16:32N 48°43' W 123°07'1 1.2
2014-Nov-17 15:33N 48°44' W 123°09'1 1.1
2014-Nov-17 14:33N 48°45' W 123°10'1 1.4
2014-Nov-17 13:33N 48°45' W 123°11'0 0.4
2014-Nov-17 12:33N 48°46' W 123°11'1 0.8
2014-Nov-17 11:33N 48°46' W 123°12'2 1.6
2014-Nov-17 10:33N 48°47' W 123°14'1 0.8
2014-Nov-17 09:33N 48°47' W 123°15'0 0.0
2014-Nov-17 08:33N 48°47' W 123°15'0 0.0
2014-Nov-17 07:33N 48°47' W 123°15'0 0.0
2014-Nov-17 06:33N 48°47' W 123°15'0 0.0
2014-Nov-17 05:33N 48°47' W 123°15'0 0.0
2014-Nov-17 04:33N 48°47' W 123°15'0 0.0
2014-Nov-17 03:33N 48°47' W 123°15'0 0.0
2014-Nov-17 02:33N 48°47' W 123°15'0 0.1
2014-Nov-17 01:33N 48°47' W 123°15'0 0.0
2014-Nov-17 00:33N 48°47' W 123°15'0 0.0
2014-Nov-16 23:33N 48°47' W 123°15'0 0.0
2014-Nov-16 22:33N 48°47' W 123°15'1 0.7
2014-Nov-16 21:33N 48°48' W 123°14'1 0.9
2014-Nov-16 20:33N 48°48' W 123°13'1 0.8
2014-Nov-16 19:33N 48°48' W 123°12'0 0.0
2014-Nov-16 18:33N 48°48' W 123°12'0 0.0
2014-Nov-16 17:33N 48°48' W 123°12'0 0.0
2014-Nov-16 16:33N 48°48' W 123°12'0 0.0
2014-Nov-16 15:29N 48°48' W 123°12'0 0.0
2014-Nov-16 14:33N 48°48' W 123°12'0 0.0
2014-Nov-16 13:32N 48°48' W 123°12'0 0.0
2014-Nov-16 12:33N 48°48' W 123°12'0 0.0
2014-Nov-16 11:28N 48°48' W 123°12'0 0.0
2014-Nov-16 10:33N 48°48' W 123°12'0 0.0
2014-Nov-16 09:33N 48°48' W 123°12'0 0.0
2014-Nov-16 08:33N 48°48' W 123°12'0 0.0
2014-Nov-16 07:33N 48°48' W 123°12'0 0.1
2014-Nov-16 06:33N 48°48' W 123°12'0 0.0
2014-Nov-16 05:33N 48°48' W 123°12'0 0.0
2014-Nov-16 04:33N 48°48' W 123°12'0 0.0
2014-Nov-16 03:33N 48°48' W 123°12'0 0.0
2014-Nov-16 02:33N 48°48' W 123°12'2 1.7
2014-Nov-16 01:33N 48°46' W 123°13'1111.0
2014-Nov-16 00:33N 48°44' W 122°56'1110.5
2014-Nov-15 23:33N 48°39' W 122°42'1110.6
2014-Nov-15 22:33N 48°31' W 122°33'7 0.5
2014-Nov-15 07:33N 48°24' W 122°30'0 0.0
2014-Nov-15 06:23N 48°24' W 122°30'0 0.0
2014-Nov-15 05:25N 48°24' W 122°30'0 0.0
2014-Nov-15 04:28N 48°24' W 122°30'0 0.0
2014-Nov-15 03:33N 48°24' W 122°30'0 0.0
2014-Nov-15 02:33N 48°24' W 122°30'0 0.0
2014-Nov-15 01:33N 48°24' W 122°30'0 0.0
2014-Nov-15 00:28N 48°24' W 122°30'0 0.0
2014-Nov-14 23:22N 48°24' W 122°30'0 0.0
2014-Nov-14 22:30N 48°24' W 122°30'0 0.2
2014-Nov-14 21:24N 48°24' W 122°30'7 8.6
2014-Nov-14 20:34N 48°31' W 122°33'1111.1
2014-Nov-14 19:34N 48°41' W 122°41'8 8.0
2014-Nov-14 18:33N 48°44' W 122°52'1010.0
2014-Nov-14 17:33N 48°45' W 123°08'4 3.3
2014-Nov-14 16:26N 48°48' W 123°11'0 0.0
2014-Nov-14 15:30N 48°48' W 123°11'0 0.0
2014-Nov-14 14:34N 48°48' W 123°11'0 0.0
2014-Nov-14 12:31N 48°48' W 123°11'0 0.0
2014-Nov-14 11:29N 48°48' W 123°11'0 0.0
2014-Nov-14 10:33N 48°48' W 123°11'0 0.0
2014-Nov-14 09:33N 48°48' W 123°11'0 0.0
2014-Nov-14 08:33N 48°48' W 123°11'0 0.0
2014-Nov-14 07:34N 48°48' W 123°11'0 0.0
2014-Nov-14 06:33N 48°48' W 123°11'0 0.0
2014-Nov-14 05:33N 48°48' W 123°11'0 0.0
2014-Nov-14 04:26N 48°48' W 123°11'0 0.0
2014-Nov-14 01:33N 48°48' W 123°11'0 0.0
2014-Nov-14 00:29N 48°48' W 123°11'0 0.0
2014-Nov-13 23:27N 48°48' W 123°11'0 0.0
2014-Nov-13 22:10N 48°48' W 123°11'0 0.0
2014-Nov-13 21:34N 48°48' W 123°11'  
Track history (hours):
 
Tides and Currents Weather Stations Pressure Air Temp Water Temp Dewpoint Dewpoint Depression Visibility Wind Speed Wind Dir Waves Ship Positions

Swinomish

Owner: DUNLAP TOWING CO, LA CONNER, WA. More information available from US FCC via Universal Licensing System and Coast Guard Vessel Documentation Center.

Last reported at 2014-Nov-23 20:33 UTC. Time now 2014-Nov-23 21:19 UTC.
Position N 48°36' W 123°00'.

Length 15 m; draft 3.5 m.

Type: Tug. MMSI: 366972050.

Date/timePositionNaut miles runAvg speedWind from/ knotsBaromVisibWave heightAir tempDewpointWater temp
2014-Nov-23 20:33N 48°36' W 123°00'0 0.0
2014-Nov-23 19:33N 48°36' W 123°00'0 0.0
2014-Nov-23 18:33N 48°36' W 123°00'0 0.0
2014-Nov-23 17:33N 48°36' W 123°00'0 0.0
2014-Nov-23 16:33N 48°36' W 123°00'0 0.0
2014-Nov-23 15:33N 48°36' W 123°00'0 0.0
2014-Nov-23 14:33N 48°36' W 123°00'0 0.0
2014-Nov-23 13:33N 48°36' W 123°00'0 0.0
2014-Nov-23 12:33N 48°36' W 123°00'0 0.0
2014-Nov-23 11:33N 48°36' W 123°00'0 0.0
2014-Nov-23 10:31N 48°36' W 123°00'0 0.0
2014-Nov-23 09:33N 48°36' W 123°00'0 0.0
2014-Nov-23 08:33N 48°36' W 123°00'0 0.0
2014-Nov-23 07:33N 48°36' W 123°00'0 0.0
2014-Nov-23 06:33N 48°36' W 123°00'0 0.0
2014-Nov-23 05:33N 48°36' W 123°00'0 0.0
2014-Nov-23 04:33N 48°36' W 123°00'0 0.0
2014-Nov-23 03:33N 48°36' W 123°00'0 0.0
2014-Nov-23 02:33N 48°36' W 123°00'0 0.0
2014-Nov-23 01:33N 48°36' W 123°00'0 0.0
2014-Nov-23 00:33N 48°36' W 123°00'0 0.0
2014-Nov-22 23:33N 48°36' W 123°00'0 0.0
2014-Nov-22 22:32N 48°36' W 123°00'0 0.0
2014-Nov-22 21:32N 48°36' W 123°00'0 0.0
2014-Nov-22 20:33N 48°36' W 123°00'0 0.0
2014-Nov-22 19:33N 48°36' W 123°00'0 0.0
2014-Nov-22 18:33N 48°36' W 123°00'0 0.0
2014-Nov-22 17:33N 48°36' W 123°00'0 0.0
2014-Nov-22 16:33N 48°36' W 123°00'0 0.0
2014-Nov-22 15:33N 48°36' W 123°00'0 0.0
2014-Nov-22 14:33N 48°36' W 123°00'0 0.0
2014-Nov-22 13:33N 48°36' W 123°00'0 0.0
2014-Nov-22 12:33N 48°36' W 123°00'0 0.0
2014-Nov-22 11:33N 48°36' W 123°00'0 0.0
2014-Nov-22 10:33N 48°36' W 123°00'0 0.0
2014-Nov-22 09:33N 48°36' W 123°00'0 0.0
2014-Nov-22 08:33N 48°36' W 123°00'0 0.0
2014-Nov-22 07:33N 48°36' W 123°00'0 0.0
2014-Nov-22 06:33N 48°36' W 123°00'0 0.0
2014-Nov-22 05:33N 48°36' W 123°00'0 0.0
2014-Nov-22 04:33N 48°36' W 123°00'0 0.1
2014-Nov-22 03:33N 48°36' W 123°00'0 0.0
2014-Nov-22 02:33N 48°36' W 123°00'0 0.0
2014-Nov-22 01:33N 48°36' W 123°00'0 0.0
2014-Nov-22 00:32N 48°36' W 123°00'0 0.0
2014-Nov-21 23:33N 48°36' W 123°00'0 0.0
2014-Nov-21 22:33N 48°36' W 123°00'0 0.0
2014-Nov-21 21:33N 48°36' W 123°00'0 0.0
2014-Nov-21 20:33N 48°36' W 123°00'0 0.0
2014-Nov-21 19:33N 48°36' W 123°00'0 0.0
2014-Nov-21 18:33N 48°36' W 123°00'0 0.0
2014-Nov-21 17:33N 48°36' W 123°00'1 1.1
2014-Nov-21 16:33N 48°37' W 123°02'2 1.9
2014-Nov-21 15:31N 48°39' W 123°01'2 1.9
2014-Nov-21 14:33N 48°40' W 122°60'2 1.6
2014-Nov-21 13:33N 48°41' W 122°58'1 0.8
2014-Nov-21 12:33N 48°42' W 122°58'0 0.1
2014-Nov-21 11:33N 48°42' W 122°58'1 1.2
2014-Nov-21 10:33N 48°43' W 122°59'1 1.0
2014-Nov-21 09:33N 48°44' W 122°60'2 2.3
2014-Nov-21 08:33N 48°44' W 123°03'3 2.8
2014-Nov-21 07:34N 48°43' W 123°07'1 1.1
2014-Nov-21 06:32N 48°44' W 123°08'1 1.0
2014-Nov-21 05:33N 48°45' W 123°08'2 2.0
2014-Nov-21 04:33N 48°46' W 123°11'1 0.9
2014-Nov-21 03:33N 48°46' W 123°12'1 0.9
2014-Nov-21 02:33N 48°46' W 123°13'0 0.2
2014-Nov-21 01:33N 48°47' W 123°13'0 0.5
2014-Nov-21 00:33N 48°46' W 123°13'1 0.7
2014-Nov-20 23:33N 48°47' W 123°13'1 1.0
2014-Nov-20 22:33N 48°48' W 123°14'1 1.2
2014-Nov-20 21:30N 48°49' W 123°15'2 1.1
2014-Nov-20 19:28N 48°50' W 123°19'1 0.5
2014-Nov-20 17:32N 48°50' W 123°20'3 1.5
2014-Nov-20 15:29N 48°51' W 123°24'1 1.1
2014-Nov-20 14:33N 48°52' W 123°25'1 0.9
2014-Nov-20 13:33N 48°52' W 123°27'0 0.2
2014-Nov-20 12:33N 48°52' W 123°27'1 0.5
2014-Nov-20 11:33N 48°52' W 123°26'0 0.1
2014-Nov-20 09:33N 48°52' W 123°27'1 1.2
2014-Nov-20 08:28N 48°53' W 123°28'1 1.3
2014-Nov-20 07:27N 48°55' W 123°29'8 2.0
2014-Nov-20 03:33N 49°00' W 123°37'1 1.2
2014-Nov-20 02:31N 49°01' W 123°38'1 0.1
2014-Nov-19 19:19N 49°01' W 123°37'2011.2
2014-Nov-19 17:32N 48°48' W 123°15'1111.1
2014-Nov-19 16:31N 48°45' W 122°58'1010.9
2014-Nov-19 15:33N 48°40' W 122°44'1010.1
2014-Nov-19 14:33N 48°32' W 122°34'8 8.2
2014-Nov-19 13:33N 48°25' W 122°30'1 0.7
2014-Nov-19 12:33N 48°24' W 122°30'0 0.0
2014-Nov-19 11:33N 48°24' W 122°30'0 0.0
2014-Nov-19 10:33N 48°24' W 122°30'0 0.0
2014-Nov-19 09:33N 48°24' W 122°30'0 0.0
2014-Nov-19 08:33N 48°24' W 122°30'4 3.3
2014-Nov-19 07:27N 48°21' W 122°33'5 4.7
2014-Nov-19 06:28N 48°25' W 122°35'1 0.8
2014-Nov-19 05:33N 48°26' W 122°34'3 1.3
2014-Nov-19 03:33N 48°25' W 122°37'1 1.4
2014-Nov-19 02:33N 48°24' W 122°39'0 0.4
2014-Nov-19 01:32N 48°25' W 122°40'1 0.7
2014-Nov-19 00:33N 48°25' W 122°41'2 2.3
2014-Nov-18 23:33N 48°27' W 122°43'2 2.4
2014-Nov-18 22:33N 48°29' W 122°44'1 1.4
2014-Nov-18 21:33N 48°30' W 122°45'2 1.6
2014-Nov-18 20:33N 48°31' W 122°47'1 1.2
2014-Nov-18 19:33N 48°32' W 122°49'1 0.8
2014-Nov-18 18:33N 48°31' W 122°50'1 0.7
2014-Nov-18 17:33N 48°31' W 122°51'0 0.1
2014-Nov-18 16:33N 48°31' W 122°51'0 0.0
2014-Nov-18 15:33N 48°31' W 122°51'0 0.0
2014-Nov-18 14:33N 48°31' W 122°51'0 0.0
2014-Nov-18 13:33N 48°31' W 122°51'0 0.0
2014-Nov-18 12:33N 48°31' W 122°51'0 0.0
2014-Nov-18 11:33N 48°31' W 122°51'0 0.0
2014-Nov-18 10:33N 48°31' W 122°51'0 0.0
2014-Nov-18 09:33N 48°31' W 122°51'0 0.0
2014-Nov-18 08:33N 48°31' W 122°51'0 0.0
2014-Nov-18 07:33N 48°31' W 122°51'0 0.0
2014-Nov-18 06:33N 48°31' W 122°51'0 0.1
2014-Nov-18 05:33N 48°31' W 122°51'1 1.4
2014-Nov-18 04:33N 48°33' W 122°50'2 1.7
2014-Nov-18 03:33N 48°34' W 122°52'2 2.0
2014-Nov-18 02:33N 48°35' W 122°54'2 2.3
2014-Nov-18 01:33N 48°36' W 122°58'2 2.0
2014-Nov-18 00:33N 48°36' W 123°01'2 2.0
2014-Nov-17 23:33N 48°37' W 123°02'2 1.8
2014-Nov-17 22:33N 48°39' W 123°01'2 1.8
2014-Nov-17 21:33N 48°41' W 122°60'2 1.9
2014-Nov-17 20:33N 48°43' W 122°59'2 2.2
2014-Nov-17 19:33N 48°45' W 123°00'2 2.1
2014-Nov-17 18:33N 48°44' W 123°03'2 1.6
2014-Nov-17 17:33N 48°43' W 123°06'1 1.2
2014-Nov-17 16:32N 48°43' W 123°07'1 1.2
2014-Nov-17 15:33N 48°44' W 123°09'1 1.1
2014-Nov-17 14:33N 48°45' W 123°10'1 1.4
2014-Nov-17 13:33N 48°45' W 123°11'0 0.4
2014-Nov-17 12:33N 48°46' W 123°11'1 0.8
2014-Nov-17 11:33N 48°46' W 123°12'2 1.6
2014-Nov-17 10:33N 48°47' W 123°14'1 0.8
2014-Nov-17 09:33N 48°47' W 123°15'0 0.0
2014-Nov-17 08:33N 48°47' W 123°15'0 0.0
2014-Nov-17 07:33N 48°47' W 123°15'0 0.0
2014-Nov-17 06:33N 48°47' W 123°15'0 0.0
2014-Nov-17 05:33N 48°47' W 123°15'0 0.0
2014-Nov-17 04:33N 48°47' W 123°15'0 0.0
2014-Nov-17 03:33N 48°47' W 123°15'0 0.0
2014-Nov-17 02:33N 48°47' W 123°15'0 0.1
2014-Nov-17 01:33N 48°47' W 123°15'0 0.0
2014-Nov-17 00:33N 48°47' W 123°15'0 0.0
2014-Nov-16 23:33N 48°47' W 123°15'0 0.0
2014-Nov-16 22:33N 48°47' W 123°15'1 0.7
2014-Nov-16 21:33N 48°48' W 123°14'1 0.9
2014-Nov-16 20:33N 48°48' W 123°13'1 0.8
2014-Nov-16 19:33N 48°48' W 123°12'0 0.0
2014-Nov-16 18:33N 48°48' W 123°12'0 0.0
2014-Nov-16 17:33N 48°48' W 123°12'0 0.0
2014-Nov-16 16:33N 48°48' W 123°12'0 0.0
2014-Nov-16 15:29N 48°48' W 123°12'0 0.0
2014-Nov-16 14:33N 48°48' W 123°12'0 0.0
2014-Nov-16 13:32N 48°48' W 123°12'0 0.0
2014-Nov-16 12:33N 48°48' W 123°12'0 0.0
2014-Nov-16 11:28N 48°48' W 123°12'0 0.0
2014-Nov-16 10:33N 48°48' W 123°12'0 0.0
2014-Nov-16 09:33N 48°48' W 123°12'0 0.0
2014-Nov-16 08:33N 48°48' W 123°12'0 0.0
2014-Nov-16 07:33N 48°48' W 123°12'0 0.1
2014-Nov-16 06:33N 48°48' W 123°12'0 0.0
2014-Nov-16 05:33N 48°48' W 123°12'0 0.0
2014-Nov-16 04:33N 48°48' W 123°12'0 0.0
2014-Nov-16 03:33N 48°48' W 123°12'0 0.0
2014-Nov-16 02:33N 48°48' W 123°12'2 1.7
2014-Nov-16 01:33N 48°46' W 123°13'1111.0
2014-Nov-16 00:33N 48°44' W 122°56'1110.5
2014-Nov-15 23:33N 48°39' W 122°42'1110.6
2014-Nov-15 22:33N 48°31' W 122°33'7 0.5
2014-Nov-15 07:33N 48°24' W 122°30'0 0.0
2014-Nov-15 06:23N 48°24' W 122°30'0 0.0
2014-Nov-15 05:25N 48°24' W 122°30'0 0.0
2014-Nov-15 04:28N 48°24' W 122°30'0 0.0
2014-Nov-15 03:33N 48°24' W 122°30'0 0.0
2014-Nov-15 02:33N 48°24' W 122°30'0 0.0
2014-Nov-15 01:33N 48°24' W 122°30'0 0.0
2014-Nov-15 00:28N 48°24' W 122°30'0 0.0
2014-Nov-14 23:22N 48°24' W 122°30'0 0.0
2014-Nov-14 22:30N 48°24' W 122°30'0 0.2
2014-Nov-14 21:24N 48°24' W 122°30'7 8.6
2014-Nov-14 20:34N 48°31' W 122°33'1111.1
2014-Nov-14 19:34N 48°41' W 122°41'8 8.0
2014-Nov-14 18:33N 48°44' W 122°52'1010.0
2014-Nov-14 17:33N 48°45' W 123°08'4 3.3
2014-Nov-14 16:26N 48°48' W 123°11'0 0.0
2014-Nov-14 15:30N 48°48' W 123°11'0 0.0
2014-Nov-14 14:34N 48°48' W 123°11'0 0.0
2014-Nov-14 12:31N 48°48' W 123°11'0 0.0
2014-Nov-14 11:29N 48°48' W 123°11'0 0.0
2014-Nov-14 10:33N 48°48' W 123°11'0 0.0
2014-Nov-14 09:33N 48°48' W 123°11'0 0.0
2014-Nov-14 08:33N 48°48' W 123°11'0 0.0
2014-Nov-14 07:34N 48°48' W 123°11'0 0.0
2014-Nov-14 06:33N 48°48' W 123°11'0 0.0
2014-Nov-14 05:33N 48°48' W 123°11'0 0.0
2014-Nov-14 04:26N 48°48' W 123°11'0 0.0
2014-Nov-14 01:33N 48°48' W 123°11'0 0.0
2014-Nov-14 00:29N 48°48' W 123°11'0 0.0
2014-Nov-13 23:27N 48°48' W 123°11'0 0.0
2014-Nov-13 22:10N 48°48' W 123°11'0 0.0
2014-Nov-13 21:34N 48°48' W 123°11'  

Dump ship's entire track history